Jeffersonville, Pennsylvania
Current Conditions -  °F | °C
As of 7:35 PM on Monday 24 Nov 2014 (Local Time) from KLOM Reporting Station
Clear Clear  
Wind Chill: 64°   Ceiling: Unl
Heat Index: 64°   Visibility: 10mi
Dew Point: 55°   Wind: 6mph
Humidity: 73%   Direction: 200°SSW
Pressure: 29.68"   Gusts: NA
Location:  40.1271°N, 75.3202°W
Report Text: KLOM 250035Z AUTO 20005KT 10SM CLR 18/13 A2968 RMK AO1
Loading
Personal Weather Stations






























Interactive Weather Map New forecast layout! Learn more

10-Day Weather Forecast

Advertisements
Track Severe Weather on mobile